Time;durP1;ratioP1;P1;durP2;ratioP2;P2;SDS_P1;SDS_P2;PMS_P1;PMS_P2;Temp;Humidity;BMP_temperature;BMP_pressure;BME280_temperature;BME280_humidity;BME280_pressure;Samples;Min_cycle;Max_cycle;Signal;HPM_P1;HPM_P2
2021/12/26 00:01:15;;;;;;;2.70;1.60;;;;;;;;;;10579103;28;20038;-78
2021/12/26 00:06:18;;;;;;;3.47;2.22;;;;;;;;;;10579012;28;20088;-79
2021/12/26 00:11:20;;;;;;;3.22;2.03;;;;;;;;;;10598801;28;20031;-78
2021/12/26 00:16:31;;;;;;;3.45;2.00;;;;;;;;;;10597191;28;20393;-79
2021/12/26 00:21:32;;;;;;;3.20;1.97;;;;;;;;;;10579217;28;20087;-81
2021/12/26 00:26:34;;;;;;;3.10;1.90;;;;;;;;;;10581131;28;20051;-80
2021/12/26 00:31:35;;;;;;;3.00;1.90;;;;;;;;;;10579284;28;20465;-81
2021/12/26 00:36:36;;;;;;;2.88;1.80;;;;;;;;;;10580837;28;20050;-80
2021/12/26 00:41:39;;;;;;;3.67;2.15;;;;;;;;;;10579906;28;20035;-80
2021/12/26 00:46:40;;;;;;;3.47;2.03;;;;;;;;;;10580468;28;20024;-79
2021/12/26 00:51:42;;;;;;;3.88;2.30;;;;;;;;;;10579468;28;20081;-80
2021/12/26 00:56:47;;;;;;;3.05;1.70;;;;;;;;;;10578656;28;20461;-79
2021/12/26 01:01:49;;;;;;;2.88;2.22;;;;;;;;;;10562356;28;20479;-80
2021/12/26 01:06:51;;;;;;;2.38;1.52;;;;;;;;;;10580517;28;20027;-80
2021/12/26 01:11:56;;;;;;;4.03;2.22;;;;;;;;;;10581617;28;20015;-80
2021/12/26 01:17:12;;;;;;;3.35;1.90;;;;;;;;;;10563214;28;20126;-80
2021/12/26 01:22:17;;;;;;;4.00;2.13;;;;;;;;;;10586112;28;20073;-80
2021/12/26 01:27:18;;;;;;;3.42;2.10;;;;;;;;;;10602762;28;20168;-80
2021/12/26 01:32:20;;;;;;;;;;;;;;;;;;10580339;28;20019;-80
2021/12/26 01:37:21;;;;;;;3.35;1.90;;;;;;;;;;10580773;28;20365;-79
2021/12/26 01:42:22;;;;;;;;;;;;;;;;;;10580594;28;20039;-80
2021/12/26 01:47:24;;;;;;;3.15;2.10;;;;;;;;;;10580055;28;19915;-80
2021/12/26 01:52:25;;;;;;;;;;;;;;;;;;10581228;28;20038;-80
2021/12/26 01:57:26;;;;;;;3.45;1.90;;;;;;;;;;10589195;27;19896;-80
2021/12/26 02:02:32;;;;;;;;;;;;;;;;;;10598377;27;20067;-80
2021/12/26 02:07:35;;;;;;;3.00;1.85;;;;;;;;;;10580376;28;19934;-80
2021/12/26 02:12:36;;;;;;;3.95;1.88;;;;;;;;;;10579991;28;20099;-80
2021/12/26 02:17:38;;;;;;;4.65;2.63;;;;;;;;;;10578861;28;20127;-79
2021/12/26 02:22:43;;;;;;;3.10;1.80;;;;;;;;;;10578206;28;20035;-80
2021/12/26 02:27:46;;;;;;;2.17;1.63;;;;;;;;;;10579376;28;20024;-80
2021/12/26 02:32:49;;;;;;;3.38;2.10;;;;;;;;;;10584251;28;20023;-79
2021/12/26 02:37:50;;;;;;;2.42;1.63;;;;;;;;;;10584945;28;20487;-79
2021/12/26 02:42:52;;;;;;;2.90;1.73;;;;;;;;;;10592574;22;20044;-78
2021/12/26 02:47:53;;;;;;;3.05;1.90;;;;;;;;;;10576732;28;20061;-79
2021/12/26 02:52:55;;;;;;;2.92;1.77;;;;;;;;;;10596412;28;20024;-78
2021/12/26 02:57:57;;;;;;;3.10;1.90;;;;;;;;;;10567298;28;20036;-79
2021/12/26 03:02:59;;;;;;;3.03;1.70;;;;;;;;;;10564170;28;20389;-79
2021/12/26 03:08:01;;;;;;;2.70;1.73;;;;;;;;;;10540394;28;20085;-79
2021/12/26 03:13:01;;;;;;;;;;;;;;;;;;10541032;28;20020;-79
2021/12/26 03:18:03;;;;;;;3.33;1.80;;;;;;;;;;10542035;28;20365;-79
2021/12/26 03:23:04;;;;;;;2.97;2.22;;;;;;;;;;10545590;28;20042;-79
2021/12/26 03:28:06;;;;;;;3.85;2.50;;;;;;;;;;10544021;28;20028;-79
2021/12/26 03:33:09;;;;;;;2.28;1.40;;;;;;;;;;10543997;28;20055;-79
2021/12/26 03:38:11;;;;;;;2.55;1.52;;;;;;;;;;10548683;28;20024;-79
2021/12/26 03:43:12;;;;;;;2.55;1.70;;;;;;;;;;10555060;28;20393;-80
2021/12/26 03:48:13;;;;;;;2.63;1.77;;;;;;;;;;10557836;28;20493;-80
2021/12/26 03:53:14;;;;;;;;;;;;;;;;;;10560200;28;20024;-79
2021/12/26 03:58:16;;;;;;;1.97;1.43;;;;;;;;;;10560435;28;19995;-79
2021/12/26 04:03:18;;;;;;;1.98;1.52;;;;;;;;;;10562230;28;20030;-79
2021/12/26 04:08:19;;;;;;;2.55;1.70;;;;;;;;;;10553813;28;20525;-80
2021/12/26 04:13:20;;;;;;;2.38;1.85;;;;;;;;;;10568640;28;20039;-79
2021/12/26 04:18:22;;;;;;;2.13;1.52;;;;;;;;;;10568637;28;20024;-79
2021/12/26 04:23:23;;;;;;;2.47;1.55;;;;;;;;;;10568912;28;20508;-79
2021/12/26 04:28:24;;;;;;;3.30;1.65;;;;;;;;;;10568238;28;20027;-79
2021/12/26 04:33:25;;;;;;;2.13;1.40;;;;;;;;;;10566821;28;20035;-79
2021/12/26 04:38:26;;;;;;;2.83;1.80;;;;;;;;;;10565805;28;20497;-79
2021/12/26 04:43:27;;;;;;;2.42;1.48;;;;;;;;;;10565684;28;20050;-80
2021/12/26 04:48:28;;;;;;;2.85;1.50;;;;;;;;;;10565499;28;20028;-80
2021/12/26 04:53:30;;;;;;;2.28;1.40;;;;;;;;;;10564470;28;20119;-79
2021/12/26 04:58:31;;;;;;;2.08;1.20;;;;;;;;;;10566801;28;20034;-80
2021/12/26 05:03:32;;;;;;;3.92;2.00;;;;;;;;;;10574489;28;20031;-79
2021/12/26 05:08:33;;;;;;;3.10;1.65;;;;;;;;;;10582698;28;20032;-79
2021/12/26 05:13:34;;;;;;;2.60;1.55;;;;;;;;;;10584071;28;20501;-80
2021/12/26 05:18:35;;;;;;;2.38;1.50;;;;;;;;;;10575125;28;20038;-80
2021/12/26 05:23:36;;;;;;;1.77;1.30;;;;;;;;;;10573410;28;20032;-79
2021/12/26 05:28:37;;;;;;;1.70;1.30;;;;;;;;;;10572427;28;20080;-80
2021/12/26 05:33:38;;;;;;;2.25;1.58;;;;;;;;;;10571131;28;20401;-80
2021/12/26 05:38:39;;;;;;;2.85;1.60;;;;;;;;;;10568047;28;20107;-80
2021/12/26 05:43:41;;;;;;;;;;;;;;;;;;10567137;28;20040;-80
2021/12/26 05:48:42;;;;;;;1.30;1.08;;;;;;;;;;10566583;28;19979;-80
2021/12/26 05:53:43;;;;;;;2.80;1.85;;;;;;;;;;10564339;28;20398;-80
2021/12/26 05:58:44;;;;;;;2.72;1.80;;;;;;;;;;10564002;28;20028;-80
2021/12/26 06:03:45;;;;;;;3.42;1.83;;;;;;;;;;10561596;28;20078;-79
2021/12/26 06:08:46;;;;;;;2.60;1.75;;;;;;;;;;10563370;28;20028;-80
2021/12/26 06:13:47;;;;;;;3.30;2.08;;;;;;;;;;10561602;28;20020;-80
2021/12/26 06:18:48;;;;;;;2.60;1.60;;;;;;;;;;10560841;28;20046;-80
2021/12/26 06:23:52;;;;;;;2.25;1.40;;;;;;;;;;10561402;28;20035;-80
2021/12/26 06:28:54;;;;;;;2.47;1.40;;;;;;;;;;10542104;28;20035;-80
2021/12/26 06:33:55;;;;;;;2.33;1.52;;;;;;;;;;10542816;28;20035;-80
2021/12/26 06:38:56;;;;;;;3.05;1.88;;;;;;;;;;10543323;28;20111;-80
2021/12/26 06:43:57;;;;;;;5.25;2.88;;;;;;;;;;10545251;28;20032;-80
2021/12/26 06:48:58;;;;;;;2.58;1.73;;;;;;;;;;10561465;28;20055;-79
2021/12/26 06:54:00;;;;;;;3.38;1.95;;;;;;;;;;10564855;28;20048;-79
2021/12/26 06:59:01;;;;;;;3.10;1.90;;;;;;;;;;10558006;28;20168;-79
2021/12/26 07:04:02;;;;;;;2.70;1.63;;;;;;;;;;10558923;28;20126;-79
2021/12/26 07:09:03;;;;;;;2.10;1.20;;;;;;;;;;10562870;28;20393;-80
2021/12/26 07:14:04;;;;;;;3.03;1.73;;;;;;;;;;10563880;28;20030;-80
2021/12/26 07:19:05;;;;;;;4.63;2.90;;;;;;;;;;10564227;28;20024;-79
2021/12/26 07:24:07;;;;;;;2.38;1.48;;;;;;;;;;10563579;28;20042;-79
2021/12/26 07:29:07;;;;;;;;;;;;;;;;;;10564173;28;20049;-79
2021/12/26 07:34:09;;;;;;;3.28;1.95;;;;;;;;;;10562349;28;19984;-79
2021/12/26 07:39:10;;;;;;;3.72;2.13;;;;;;;;;;10563667;28;20118;-81
2021/12/26 07:44:11;;;;;;;2.72;1.83;;;;;;;;;;10572078;28;20035;-81
2021/12/26 07:49:12;;;;;;;2.95;2.22;;;;;;;;;;10572221;28;20087;-80
2021/12/26 07:54:15;;;;;;;2.63;1.75;;;;;;;;;;10572275;28;20025;-81
2021/12/26 07:59:16;;;;;;;2.65;1.73;;;;;;;;;;10580694;28;20061;-80
2021/12/26 08:04:17;;;;;;;3.20;2.45;;;;;;;;;;10587888;28;20068;-80
2021/12/26 08:09:18;;;;;;;2.70;2.05;;;;;;;;;;10585241;28;20103;-80
2021/12/26 08:14:19;;;;;;;3.03;1.95;;;;;;;;;;10581144;28;20020;-80
2021/12/26 08:19:20;;;;;;;4.28;2.50;;;;;;;;;;10593241;28;20016;-80
2021/12/26 08:24:24;;;;;;;2.45;1.83;;;;;;;;;;10583573;28;20035;-80
2021/12/26 08:29:25;;;;;;;3.78;2.45;;;;;;;;;;10577175;28;20072;-79
2021/12/26 08:34:26;;;;;;;3.15;2.33;;;;;;;;;;10572635;28;20454;-78
2021/12/26 08:39:32;;;;;;;4.78;3.30;;;;;;;;;;10570988;28;20069;-79
2021/12/26 08:44:33;;;;;;;3.20;1.95;;;;;;;;;;10549384;22;20107;-79
2021/12/26 08:49:34;;;;;;;4.40;3.03;;;;;;;;;;10451637;28;20025;-79
2021/12/26 08:54:37;;;;;;;3.88;2.63;;;;;;;;;;10450098;28;20149;-81
2021/12/26 08:59:40;;;;;;;3.53;2.20;;;;;;;;;;10435322;28;20037;-79
2021/12/26 09:04:41;;;;;;;3.13;2.10;;;;;;;;;;10451085;28;20400;-79
2021/12/26 09:09:51;;;;;;;2.28;1.58;;;;;;;;;;10450766;28;20100;-80
2021/12/26 09:14:57;;;;;;;3.40;2.50;;;;;;;;;;10468334;28;20039;-80
2021/12/26 09:19:58;;;;;;;3.72;2.88;;;;;;;;;;10452864;28;20070;-79
2021/12/26 09:25:00;;;;;;;3.65;2.47;;;;;;;;;;10481915;28;20025;-79
2021/12/26 09:30:01;;;;;;;3.33;2.28;;;;;;;;;;10467710;28;20052;-80
2021/12/26 09:35:05;;;;;;;4.07;2.55;;;;;;;;;;10466629;28;20024;-80
2021/12/26 09:40:08;;;;;;;3.38;2.17;;;;;;;;;;10467539;28;20021;-79
2021/12/26 09:45:10;;;;;;;3.72;2.85;;;;;;;;;;10449972;28;20032;-79
2021/12/26 09:50:11;;;;;;;;;;;;;;;;;;10449674;28;20029;-80
2021/12/26 09:55:12;;;;;;;4.20;3.10;;;;;;;;;;10468858;28;19905;-79
2021/12/26 10:00:17;;;;;;;4.93;2.72;;;;;;;;;;10472028;28;20025;-79
2021/12/26 10:05:18;;;;;;;4.40;2.95;;;;;;;;;;10452532;28;20025;-79
2021/12/26 10:10:19;;;;;;;;;;;;;;;;;;10452905;28;20028;-79
2021/12/26 10:15:21;;;;;;;;;;;;;;;;;;10468741;28;19904;-79
2021/12/26 10:20:23;;;;;;;5.82;4.18;;;;;;;;;;10451793;28;20285;-79
2021/12/26 10:25:24;;;;;;;;;;;;;;;;;;10452103;28;20033;-79
2021/12/26 10:30:25;;;;;;;6.28;4.47;;;;;;;;;;10453589;28;20389;-79
2021/12/26 10:35:28;;;;;;;3.30;2.58;;;;;;;;;;10450920;28;20028;-79
2021/12/26 10:40:31;;;;;;;3.97;3.40;;;;;;;;;;10468688;28;20045;-79
2021/12/26 10:45:34;;;;;;;3.58;2.95;;;;;;;;;;10452585;28;20032;-79
2021/12/26 10:50:42;;;;;;;5.57;3.45;;;;;;;;;;10453272;28;20029;-79
2021/12/26 10:55:57;;;;;;;6.70;4.88;;;;;;;;;;10438154;28;20021;-79
2021/12/26 11:01:00;;;;;;;7.60;5.90;;;;;;;;;;10476508;28;20036;-78
2021/12/26 11:06:06;;;;;;;4.68;3.35;;;;;;;;;;10452236;28;20029;-79
2021/12/26 11:11:20;;;;;;;5.10;3.15;;;;;;;;;;10448711;28;20041;-78
2021/12/26 11:16:36;;;;;;;6.25;4.80;;;;;;;;;;10455645;28;20064;-79
2021/12/26 11:21:39;;;;;;;4.47;3.63;;;;;;;;;;10476079;28;20025;-80
2021/12/26 11:26:43;;;;;;;;;;;;;;;;;;10460648;28;20033;-80
2021/12/26 11:31:44;;;;;;;4.47;3.35;;;;;;;;;;10476696;28;19904;-80
2021/12/26 11:36:52;;;;;;;6.07;4.65;;;;;;;;;;10479468;28;20036;-79
2021/12/26 11:42:12;;;;;;;6.07;4.43;;;;;;;;;;10483931;28;20441;-80
2021/12/26 11:47:24;;;;;;;8.40;6.22;;;;;;;;;;10472420;28;20049;-79
2021/12/26 11:52:49;;;;;;;7.00;4.30;;;;;;;;;;10458122;28;20017;-79
2021/12/26 11:58:05;;;;;;;5.68;3.92;;;;;;;;;;10476994;28;20491;-79
2021/12/26 12:03:16;;;;;;;6.10;4.85;;;;;;;;;;10459388;28;20649;-79
2021/12/26 12:08:25;;;;;;;5.82;4.40;;;;;;;;;;10441848;28;20056;-80
2021/12/26 12:13:28;;;;;;;6.32;4.18;;;;;;;;;;10474543;28;20147;-79
2021/12/26 12:18:35;;;;;;;6.10;3.92;;;;;;;;;;10474719;28;20526;-79
2021/12/26 12:23:54;;;;;;;6.40;4.88;;;;;;;;;;10459007;28;20094;-79
2021/12/26 12:28:56;;;;;;;4.82;3.75;;;;;;;;;;10493937;28;20430;-79
2021/12/26 12:34:10;;;;;;;4.90;3.58;;;;;;;;;;10479935;28;20037;-79
2021/12/26 12:39:14;;;;;;;6.47;4.70;;;;;;;;;;10457102;28;20044;-79
2021/12/26 12:44:46;;;;;;;4.93;3.75;;;;;;;;;;10473791;28;20114;-79
2021/12/26 12:49:56;;;;;;;6.78;4.95;;;;;;;;;;10457092;28;20051;-79
2021/12/26 12:55:19;;;;;;;4.88;3.67;;;;;;;;;;10472806;28;20116;-79
2021/12/26 13:00:27;;;;;;;6.38;5.10;;;;;;;;;;10457063;28;20029;-79
2021/12/26 13:05:33;;;;;;;5.95;4.60;;;;;;;;;;10457512;28;20029;-79
2021/12/26 13:10:35;;;;;;;5.35;4.25;;;;;;;;;;10456817;28;20039;-79
2021/12/26 13:15:48;;;;;;;8.23;7.32;;;;;;;;;;10456850;28;20047;-79
2021/12/26 13:20:53;;;;;;;6.53;5.35;;;;;;;;;;10459674;28;20029;-79
2021/12/26 13:26:01;;;;;;;;;;;;;;;;;;10458771;28;20041;-79
2021/12/26 13:31:14;;;;;;;6.47;5.63;;;;;;;;;;10457090;28;19908;-79
2021/12/26 13:36:19;;;;;;;4.28;3.60;;;;;;;;;;10455136;28;20033;-79
2021/12/26 13:41:28;;;;;;;7.45;6.50;;;;;;;;;;10471509;28;20025;-79
2021/12/26 13:46:35;;;;;;;5.63;4.97;;;;;;;;;;10455566;28;20094;-79
2021/12/26 13:51:38;;;;;;;7.63;6.60;;;;;;;;;;10450907;28;20020;-79
2021/12/26 13:56:45;;;;;;;8.10;6.70;;;;;;;;;;10467189;28;20029;-79
2021/12/26 14:01:47;;;;;;;6.25;5.32;;;;;;;;;;10453891;28;20028;-79
2021/12/26 14:06:48;;;;;;;5.93;4.80;;;;;;;;;;10451585;28;20041;-79
2021/12/26 14:12:14;;;;;;;7.15;5.70;;;;;;;;;;10454162;28;20068;-78
2021/12/26 14:17:19;;;;;;;9.48;7.68;;;;;;;;;;10471327;28;20533;-78
2021/12/26 14:22:25;;;;;;;6.65;5.60;;;;;;;;;;10453455;28;20033;-79
2021/12/26 14:27:28;;;;;;;9.80;7.55;;;;;;;;;;10453603;28;20112;-79
2021/12/26 14:32:29;;;;;;;6.72;5.43;;;;;;;;;;10438113;28;20094;-79
2021/12/26 14:37:30;;;;;;;5.28;4.03;;;;;;;;;;10471190;28;20087;-79
2021/12/26 14:42:45;;;;;;;10.75;7.40;;;;;;;;;;10468446;28;20060;-79
2021/12/26 14:47:50;;;;;;;5.18;4.32;;;;;;;;;;10460134;28;20045;-78
2021/12/26 14:53:14;;;;;;;4.60;4.00;;;;;;;;;;10437057;28;20079;-79
2021/12/26 14:58:18;;;;;;;6.13;4.72;;;;;;;;;;10470308;28;20072;-79
2021/12/26 15:03:26;;;;;;;5.85;4.57;;;;;;;;;;10474180;28;20033;-79
2021/12/26 15:08:28;;;;;;;4.68;4.03;;;;;;;;;;10454674;28;20044;-78
2021/12/26 15:13:37;;;;;;;5.47;4.88;;;;;;;;;;10438713;28;20487;-79
2021/12/26 15:18:40;;;;;;;5.30;4.63;;;;;;;;;;10473669;28;20025;-79
2021/12/26 15:23:42;;;;;;;6.53;5.13;;;;;;;;;;10439483;28;20547;-79
2021/12/26 15:28:46;;;;;;;6.45;5.65;;;;;;;;;;10473005;28;20378;-78
2021/12/26 15:33:56;;;;;;;8.20;6.85;;;;;;;;;;10471241;28;20050;-79
2021/12/26 15:39:02;;;;;;;6.05;5.05;;;;;;;;;;10466277;28;20102;-80
2021/12/26 15:44:05;;;;;;;7.78;6.97;;;;;;;;;;10453350;28;20116;-79
2021/12/26 15:49:14;;;;;;;5.40;4.50;;;;;;;;;;10469114;28;20045;-80
2021/12/26 15:54:18;;;;;;;6.78;5.43;;;;;;;;;;10470169;28;20029;-80
2021/12/26 15:59:20;;;;;;;6.20;5.18;;;;;;;;;;10452455;28;20391;-80
2021/12/26 16:04:23;;;;;;;5.40;4.55;;;;;;;;;;10467374;28;20037;-79
2021/12/26 16:09:24;;;;;;;6.80;5.82;;;;;;;;;;10480936;28;20094;-79
2021/12/26 16:14:25;;;;;;;;;;;;;;;;;;10440038;28;20039;-80
2021/12/26 16:19:26;;;;;;;7.15;5.95;;;;;;;;;;10455971;28;19972;-80
2021/12/26 16:24:28;;;;;;;5.80;4.85;;;;;;;;;;10456908;28;20033;-80
2021/12/26 16:29:32;;;;;;;7.80;6.57;;;;;;;;;;10457739;28;20029;-80
2021/12/26 16:34:34;;;;;;;8.52;6.65;;;;;;;;;;10490154;28;20029;-78
2021/12/26 16:39:36;;;;;;;9.38;7.60;;;;;;;;;;10469557;28;20036;-79
2021/12/26 16:44:37;;;;;;;8.10;6.38;;;;;;;;;;10453243;28;20029;-78
2021/12/26 16:49:38;;;;;;;6.15;5.13;;;;;;;;;;10453475;28;20111;-78
2021/12/26 16:54:39;;;;;;;7.38;6.45;;;;;;;;;;10453299;28;20426;-78
2021/12/26 16:59:45;;;;;;;5.95;4.63;;;;;;;;;;10454794;28;20086;-80
2021/12/26 17:04:47;;;;;;;6.93;5.63;;;;;;;;;;10453138;28;20035;-81
2021/12/26 17:09:50;;;;;;;6.45;5.32;;;;;;;;;;10452994;28;20106;-81
2021/12/26 17:14:51;;;;;;;6.88;6.15;;;;;;;;;;10451253;28;20024;-80
2021/12/26 17:19:53;;;;;;;6.72;6.03;;;;;;;;;;10452973;28;20450;-80
2021/12/26 17:24:54;;;;;;;8.55;6.60;;;;;;;;;;10451851;28;20121;-81
2021/12/26 17:29:57;;;;;;;10.63;5.78;;;;;;;;;;10453329;28;20033;-81
2021/12/26 17:35:02;;;;;;;5.50;4.57;;;;;;;;;;10470163;28;20036;-80
2021/12/26 17:40:04;;;;;;;6.32;4.90;;;;;;;;;;10478898;28;20447;-80
2021/12/26 17:45:05;;;;;;;7.95;6.25;;;;;;;;;;10475878;28;20041;-81
2021/12/26 17:50:06;;;;;;;;;;;;;;;;;;10457542;28;20087;-80
2021/12/26 17:55:09;;;;;;;9.55;7.75;;;;;;;;;;10452123;28;19909;-81
2021/12/26 18:00:15;;;;;;;6.03;4.93;;;;;;;;;;10451442;28;20040;-81
2021/12/26 18:05:16;;;;;;;9.27;8.20;;;;;;;;;;10451818;28;20036;-81
2021/12/26 18:10:18;;;;;;;6.78;5.88;;;;;;;;;;10470339;28;20075;-80
2021/12/26 18:15:21;;;;;;;9.52;7.82;;;;;;;;;;10454537;28;20029;-81
2021/12/26 18:20:24;;;;;;;7.20;6.35;;;;;;;;;;10475092;28;20104;-81
2021/12/26 18:25:26;;;;;;;7.05;5.93;;;;;;;;;;10439018;28;20047;-80
2021/12/26 18:30:27;;;;;;;6.80;5.53;;;;;;;;;;10448970;28;20028;-81
2021/12/26 18:35:29;;;;;;;7.28;6.00;;;;;;;;;;10466151;28;20382;-81
2021/12/26 18:40:30;;;;;;;8.40;7.47;;;;;;;;;;10448624;28;20028;-80
2021/12/26 18:45:37;;;;;;;7.57;5.90;;;;;;;;;;10447848;28;20422;-80
2021/12/26 18:50:38;;;;;;;8.57;7.13;;;;;;;;;;10447920;28;20033;-80
2021/12/26 18:55:39;;;;;;;8.02;6.88;;;;;;;;;;10447461;28;20165;-81
2021/12/26 19:00:41;;;;;;;8.73;7.68;;;;;;;;;;10447933;28;20071;-80
2021/12/26 19:05:44;;;;;;;7.72;6.72;;;;;;;;;;10447172;28;20491;-81
2021/12/26 19:10:48;;;;;;;11.25;7.40;;;;;;;;;;10448461;28;20021;-80
2021/12/26 19:15:50;;;;;;;7.43;5.00;;;;;;;;;;10447451;28;20028;-80
2021/12/26 19:20:51;;;;;;;6.20;5.30;;;;;;;;;;10447280;28;20032;-80
2021/12/26 19:25:57;;;;;;;;;;;;;;;;;;10448051;28;20021;-79
2021/12/26 19:31:01;;;;;;;9.38;7.65;;;;;;;;;;10446969;28;19912;-80
2021/12/26 19:36:04;;;;;;;9.75;8.00;;;;;;;;;;10447542;28;20087;-80
2021/12/26 19:41:08;;;;;;;9.85;6.32;;;;;;;;;;10453470;28;20132;-80
2021/12/26 19:46:10;;;;;;;12.80;8.25;;;;;;;;;;10455101;28;20437;-80
2021/12/26 19:51:12;;;;;;;12.00;8.27;;;;;;;;;;10456172;28;20029;-82
2021/12/26 19:56:13;;;;;;;13.25;10.75;;;;;;;;;;10455730;28;20036;-79
2021/12/26 20:01:14;;;;;;;;;;;;;;;;;;10473833;28;20025;-79
2021/12/26 20:06:15;;;;;;;8.68;7.25;;;;;;;;;;10455609;28;19905;-79
2021/12/26 20:11:17;;;;;;;11.15;8.85;;;;;;;;;;10454918;28;20033;-80
2021/12/26 20:16:19;;;;;;;9.43;6.82;;;;;;;;;;10455867;28;20025;-79
2021/12/26 20:21:20;;;;;;;9.35;7.95;;;;;;;;;;10456524;28;20478;-80
2021/12/26 20:26:22;;;;;;;9.15;6.88;;;;;;;;;;10455519;28;20491;-79
2021/12/26 20:31:25;;;;;;;9.90;6.75;;;;;;;;;;10474743;28;20021;-80
2021/12/26 20:36:27;;;;;;;8.48;6.70;;;;;;;;;;10495642;28;20009;-80
2021/12/26 20:41:31;;;;;;;9.13;7.43;;;;;;;;;;10504988;28;20059;-80
2021/12/26 20:46:33;;;;;;;12.80;8.45;;;;;;;;;;10456475;28;20029;-79
2021/12/26 20:51:34;;;;;;;9.40;7.35;;;;;;;;;;10439919;28;20107;-78
2021/12/26 20:56:36;;;;;;;10.90;8.95;;;;;;;;;;10441463;28;20040;-79
2021/12/26 21:01:54;;;;;;;11.52;8.70;;;;;;;;;;10476959;28;20078;-78
2021/12/26 21:06:56;;;;;;;9.57;7.95;;;;;;;;;;10457988;28;20029;-79
2021/12/26 21:11:59;;;;;;;8.30;6.88;;;;;;;;;;10472471;28;20044;-78
